Latest Weather Observations for Leigh Creek

IDS60801

Issued at 12:05 pm CST Wednesday 3 September 2014 (issued every 30 minutes, with the page automatically refreshed every 10 minutes)

About weather observations | Map of weather stations | Latest weather observations for SA | Other Formats
Station Details ID: 017110 Name: LEIGH CREEK AIRPORT Lat: -30.60 Lon: 138.42 Height: 258.8 m
Data from the previous 72 hours. | See also: Recent months at Leigh Creek
Date/Time
CST
Temp
°C
App
Temp
°C
Dew
Point
Rel
Hum
%
Delta-T
°C
Wind Press
QNH
hPa
Press
MSL
hPa
Rain
since 9 am
mm
Dir
 
Spd
km/h
Gust
km/h
Spd
kts
Gust
kts
03/12:00pm 15.9 11.2 0.9 36 6.6 N 15 22 8 12 1023.4 1023.0 0.0
03/11:30am 15.2 10.5 1.0 38 6.2 N 15 22 8 12 1023.9 1023.5 0.0
03/11:00am 15.1 10.1 1.3 39 6.1 N 17 24 9 13 1024.3 1024.0 0.0
03/10:30am 15.3 10.7 1.8 40 6.0 N 15 26 8 14 1024.7 1024.3 0.0
03/10:00am 13.7 9.7 2.9 48 4.9 NNE 13 17 7 9 1025.0 1024.6 0.0
03/09:30am 13.1 9.4 2.6 49 4.7 N 11 17 6 9 1025.1 1024.7 0.0
03/09:00am 12.4 9.3 3.4 54 4.0 E 9 17 5 9 1025.5 1025.1 0.0
03/08:30am 11.7 8.2 3.5 57 3.7 E 11 15 6 8 1025.5 1025.1 0.0
03/08:00am 10.1 6.6 3.4 63 3.0 E 11 13 6 7 1025.2 1024.8 0.0
03/07:30am 8.7 7.1 2.5 65 2.6 CALM 0 0 0 0 1024.9 1024.5 0.0
03/07:00am 4.1 2.0 -0.5 72 1.7 CALM 0 0 0 0 1024.9 1024.5 0.0
03/06:30am 4.3 1.3 -1.5 66 2.1 SE 4 9 2 5 1024.2 1023.8 0.0
03/06:00am 4.7 2.6 -0.5 69 2.0 CALM 0 0 0 0 1023.8 1023.4 0.0
03/05:30am 5.0 2.6 -0.4 68 2.1 SE 2 6 1 3 1023.7 1023.3 0.0
03/05:00am 4.3 1.1 -0.7 70 1.9 SE 6 7 3 4 1023.6 1023.2 0.0
03/04:30am 3.6 0.3 -1.2 71 1.8 SE 6 7 3 4 1023.6 1023.2 0.0
03/04:00am 4.5 1.1 -0.9 68 2.0 SE 7 9 4 5 1023.4 1023.0 0.0
03/03:30am 4.3 0.8 -1.1 68 2.0 SE 7 9 4 5 1023.5 1023.1 0.0
03/03:00am 4.6 0.4 -1.0 67 2.1 ESE 11 13 6 7 1023.8 1023.4 0.0
03/02:30am 4.6 0.8 -1.0 67 2.1 ESE 9 11 5 6 1024.3 1024.0 0.0
03/02:00am 4.7 0.1 -0.7 68 2.0 ESE 13 15 7 8 1024.7 1024.3 0.0
03/01:30am 5.3 2.5 -0.1 68 2.1 ESE 4 13 2 7 1025.1 1024.7 0.0
03/01:00am 5.9 4.0 0.3 67 2.2 CALM 0 0 0 0 1025.4 1025.0 0.0
03/12:30am 7.3 4.3 1.0 64 2.5 SE 6 9 3 5 1025.3 1024.9 0.0
03/12:00am 8.3 5.4 2.5 67 2.5 SSE 7 11 4 6 1025.3 1024.9 0.0
 
Date/Time
CST
Temp
°C
App
Temp
°C
Dew
Point
Rel
Hum
%
Delta-T
°C
Wind Press
QNH
hPa
Press
MSL
hPa
Rain
since 9 am
mm
Dir
 
Spd
km/h
Gust
km/h
Spd
kts
Gust
kts
02/11:30pm 8.8 4.8 2.6 65 2.6 SSW 13 15 7 8 1025.2 1024.8 0.0
02/11:00pm 9.2 5.1 2.3 62 2.9 S 13 15 7 8 1025.5 1025.1 0.0
02/10:30pm 9.3 5.2 2.2 61 3.0 SSW 13 17 7 9 1025.5 1025.1 0.0
02/10:00pm 9.6 5.4 1.5 57 3.4 S 13 17 7 9 1025.6 1025.2 0.0
02/09:30pm 10.2 4.8 1.3 54 3.7 SSW 19 22 10 12 1025.7 1025.3 0.0
02/09:00pm 10.8 5.4 1.1 51 4.1 SSW 19 22 10 12 1025.6 1025.2 0.0
02/08:30pm 11.2 5.7 0.6 48 4.4 SSW 19 22 10 12 1025.4 1025.0 0.0
02/08:00pm 11.9 6.2 0.4 45 4.8 SSW 20 26 11 14 1025.2 1024.8 0.0
02/07:30pm 12.4 6.6 0.2 43 5.1 SSW 20 24 11 13 1025.1 1024.7 0.0
02/07:00pm 12.6 7.3 -0.3 41 5.4 SSW 17 19 9 10 1024.5 1024.2 0.0
02/06:30pm 13.4 7.7 -0.6 38 5.8 SSW 19 26 10 14 1024.4 1024.1 0.0
02/06:00pm 14.3 8.1 -0.2 37 6.1 SSW 22 30 12 16 1024.2 1023.8 0.0
02/05:30pm 15.0 9.0 0.8 38 6.2 SSW 22 32 12 17 1024.1 1023.7 0.0
02/05:00pm 15.4 8.9 0.4 36 6.5 SSW 24 33 13 18 1023.9 1023.5 0.0
02/04:30pm 15.8 9.4 1.2 37 6.4 SSW 24 39 13 21 1023.7 1023.3 0.0
02/04:00pm 16.1 9.1 1.8 38 6.4 SSW 28 39 15 21 1023.4 1023.0 0.0
02/03:30pm 16.3 8.9 1.6 37 6.6 SSW 30 39 16 21 1023.5 1023.1 0.0
02/03:00pm 16.7 9.7 2.0 37 6.6 SSW 28 39 15 21 1023.4 1023.0 0.0
02/02:30pm 16.5 9.1 1.8 37 6.6 SSW 30 41 16 22 1023.5 1023.1 0.0
02/02:00pm 16.5 9.6 2.5 39 6.4 S 28 44 15 24 1023.9 1023.5 0.0
02/01:30pm 16.2 10.1 2.6 40 6.2 SSW 24 39 13 21 1024.0 1023.6 0.0
02/01:00pm 15.9 9.0 2.3 40 6.2 SSW 28 41 15 22 1024.1 1023.7 0.0
02/12:30pm 14.8 9.1 3.0 45 5.4 SSW 22 35 12 19 1024.5 1024.2 0.0
02/12:00pm 14.8 9.1 3.0 45 5.4 SSW 22 33 12 18 1024.8 1024.4 0.0
02/11:30am 14.5 9.0 3.9 49 4.9 SSW 22 35 12 19 1025.0 1024.6 0.0
02/11:00am 13.3 8.1 3.7 52 4.4 S 20 30 11 16 1025.3 1024.9 0.0
02/10:30am 12.7 7.8 3.9 55 4.0 S 19 30 10 16 1025.7 1025.3 0.0
02/10:00am 12.0 6.9 4.2 59 3.6 S 20 30 11 16 1025.8 1025.4 0.0
02/09:30am 11.4 6.3 3.9 60 3.4 S 20 35 11 19 1026.1 1025.7 0.0
02/09:00am 10.0 4.5 4.0 66 2.7 S 22 32 12 17 1025.6 1025.2 0.0
02/08:30am 9.1 4.2 4.1 71 2.2 SSW 19 30 10 16 1025.9 1025.5 0.0
02/08:00am 7.5 2.7 4.5 81 1.3 SSW 19 26 10 14 1025.3 1024.9 0.0
02/07:30am 6.0 1.8 3.8 86 0.9 SSW 15 22 8 12 1025.1 1024.7 0.0
02/07:00am 4.4 0.4 3.1 91 0.5 SSW 13 17 7 9 1024.9 1024.5 0.0
02/06:30am 4.3 0.3 3.0 91 0.5 SSW 13 19 7 10 1024.5 1024.2 0.0
02/06:00am 4.3 0.4 3.3 93 0.4 SSW 13 15 7 8 1024.2 1023.8 0.0
02/05:30am 4.7 1.5 3.2 90 0.6 SSW 9 13 5 7 1024.0 1023.6 0.0
02/05:00am 5.1 2.0 3.6 90 0.6 S 9 15 5 8 1023.6 1023.2 0.0
02/04:30am 5.6 1.4 3.9 89 0.7 S 15 20 8 11 1023.1 1022.7 0.0
02/04:00am 6.3 1.8 4.3 87 0.9 S 17 26 9 14 1022.9 1022.5 0.0
02/03:30am 6.2 2.5 4.2 87 0.9 S 13 20 7 11 1022.8 1022.4 0.0
02/03:00am 6.6 2.9 4.3 85 1.0 S 13 20 7 11 1022.8 1022.4 0.0
02/02:30am 6.8 2.3 4.3 84 1.1 S 17 28 9 15 1022.6 1022.2 0.0
02/02:00am 7.4 3.4 4.7 83 1.2 S 15 20 8 11 1022.7 1022.3 0.0
02/01:30am 8.0 3.8 5.5 84 1.1 S 17 26 9 14 1022.6 1022.2 0.0
02/01:00am 8.2 3.6 6.5 89 0.8 S 20 26 11 14 1022.3 1021.9 0.0
02/12:30am 8.4 2.8 7.0 91 0.7 SSW 26 33 14 18 1021.9 1021.5 0.0
02/12:00am 8.8 2.8 7.1 89 0.8 SSW 28 35 15 19 1021.6 1021.2 0.0
 
Date/Time
CST
Temp
°C
App
Temp
°C
Dew
Point
Rel
Hum
%
Delta-T
°C
Wind Press
QNH
hPa
Press
MSL
hPa
Rain
since 9 am
mm
Dir
 
Spd
km/h
Gust
km/h
Spd
kts
Gust
kts
01/11:30pm 9.0 3.0 7.0 87 0.9 SSW 28 37 15 20 1021.6 1021.2 0.0
01/11:00pm 9.5 3.2 7.3 86 1.1 SSW 30 37 16 20 1021.6 1021.2 0.0
01/10:30pm 9.8 4.6 7.2 84 1.2 SSW 24 32 13 17 1021.4 1021.0 0.0
01/10:00pm 10.3 4.4 7.5 83 1.4 SSW 28 35 15 19 1021.1 1020.7 0.0
01/09:30pm 10.9 4.4 8.0 82 1.4 SSW 32 41 17 22 1020.9 1020.4 0.0
01/09:00pm 11.5 5.9 8.9 84 1.3 SSW 28 43 15 23 1020.4 1020.0 0.0
01/08:30pm 11.4 7.7 9.5 88 1.0 SW 19 24 10 13 1020.0 1019.6 0.0
01/08:00pm 11.8 8.2 9.9 88 1.0 SSW 19 26 10 14 1019.6 1019.2 0.0
01/07:30pm 11.9 8.6 9.6 86 1.2 SSW 17 24 9 13 1019.0 1018.6 0.0
01/07:00pm 12.0 8.3 9.4 84 1.3 SSW 19 26 10 14 1018.2 1017.8 0.0
01/06:30pm 12.6 7.5 9.2 80 1.7 SSW 26 35 14 19 1017.8 1017.4 0.0
01/06:03pm 13.1 6.3 9.2 77 2.0 SSW 35 54 19 29 1017.4 1016.9 0.0
01/06:00pm 13.3 5.7 9.2 76 2.1 SSW 39 54 21 29 1017.3 1016.8 0.0
01/05:52pm 15.0 8.4 7.8 62 3.6 SW 32 54 17 29 1017.0 1016.5 0.0
01/05:30pm 15.6 8.7 7.4 58 4.1 SW 33 48 18 26 1016.7 1016.2 0.0
01/05:00pm 15.5 9.2 7.5 59 4.0 SW 30 39 16 21 1016.4 1016.0 0.0
01/04:30pm 15.8 10.7 7.6 58 4.1 SW 24 35 13 19 1016.1 1015.7 0.0
01/04:00pm 15.8 10.9 8.5 62 3.8 WSW 24 35 13 19 1015.9 1015.5 0.0
01/03:30pm 15.9 10.9 8.2 60 3.9 SW 24 32 13 17 1015.7 1015.3 0.0
01/03:00pm 15.5 9.7 8.0 61 3.8 SW 28 35 15 19 1015.5 1015.1 0.0
01/02:30pm 15.2 9.7 7.5 60 3.9 SSW 26 35 14 19 1015.1 1014.7 0.0
01/02:00pm 14.7 9.8 8.6 67 3.1 S 24 32 13 17 1014.6 1014.2 0.0
01/01:30pm 15.7 10.7 8.0 60 3.9 WSW 24 33 13 18 1015.6 1015.2 0.0
01/01:00pm 16.3 11.1 7.3 55 4.5 SW 24 30 13 16 1015.8 1015.4 0.0
01/12:30pm 16.7 11.5 7.4 54 4.7 SSW 24 35 13 19 1015.4 1015.0 0.0
01/12:00pm 17.6 10.6 6.8 49 5.4 SSW 33 48 18 26 1016.3 1015.9 0.0
01/11:30am 18.0 11.1 6.5 47 5.8 SSW 32 39 17 21 1016.0 1015.6 0.0
01/11:00am 17.7 10.5 7.7 52 5.1 SSW 35 44 19 24 1016.2 1015.8 0.0
01/10:30am 18.7 12.0 7.5 48 5.8 SSW 32 43 17 23 1016.1 1015.7 0.0
01/10:00am 18.4 11.5 6.3 45 6.1 SSW 32 43 17 23 1015.6 1015.2 0.0
01/09:30am 18.1 10.9 2.8 36 7.1 S 30 39 16 21 1015.4 1015.0 0.0
01/09:17am 19.0 11.9 1.5 31 8.0 SSW 28 35 15 19 1015.5 1015.5 0.0
01/09:00am 17.8 14.7 -3.0 24 8.6 WSW 4 9 2 5 1015.4 1015.4 0.0
01/08:30am 16.5 12.8 -3.0 26 7.9 E 7 9 4 5 1015.0 1015.0 0.0
01/08:00am 16.0 11.5 -3.0 27 7.7 NW 11 15 6 8 1014.8 1014.8 0.0
01/07:30am 13.5 10.7 -3.3 31 6.6 WNW 2 11 1 6 1014.6 1014.6 0.0
01/07:00am 12.4 7.8 -3.8 32 6.2 NNW 11 17 6 9 1013.9 1013.8 0.0
01/06:30am 12.4 6.7 -3.8 32 6.2 NNW 17 19 9 10 1013.7 1013.6 0.0
01/06:00am 12.3 7.0 -3.9 32 6.2 N 15 20 8 11 1013.5 1013.4 0.0
01/05:30am 13.7 8.0 -3.5 30 6.7 NNW 17 19 9 10 1013.5 1013.4 0.0
01/05:00am 13.7 7.5 -3.5 30 6.7 NNW 20 22 11 12 1013.1 1013.0 0.0
01/04:30am 12.2 5.9 -4.0 32 6.2 NNW 20 22 11 12 1012.6 1012.5 0.0
01/04:00am 12.3 6.0 -3.9 32 6.2 N 20 22 11 12 1012.5 1012.4 0.0
01/03:30am 11.9 6.1 -4.2 32 6.1 N 17 20 9 11 1012.6 1012.5 0.0
01/03:00am 12.9 7.1 -4.2 30 6.5 NNW 17 19 9 10 1012.9 1012.8 0.0
01/02:30am 12.3 6.9 -4.3 31 6.3 NNW 15 15 8 8 1013.3 1013.2 0.0
01/02:00am 13.0 7.6 -4.1 30 6.6 NNW 15 17 8 9 1013.3 1013.2 0.0
01/01:30am 12.9 6.8 -3.8 31 6.4 NNW 19 20 10 11 1013.5 1013.4 0.0
01/01:00am 11.6 5.5 -4.1 33 5.9 N 19 20 10 11 1013.3 1013.2 0.0
01/12:30am 12.6 6.5 -4.1 31 6.4 N 19 20 10 11 1013.3 1013.2 0.0
01/12:00am 13.2 7.5 -4.0 30 6.6 N 17 19 9 10 1013.4 1013.3 0.0
 
Date/Time
CST
Temp
°C
App
Temp
°C
Dew
Point
Rel
Hum
%
Delta-T
°C
Wind Press
QNH
hPa
Press
MSL
hPa
Rain
since 9 am
mm
Dir
 
Spd
km/h
Gust
km/h
Spd
kts
Gust
kts
31/11:30pm 14.5 8.3 -3.3 29 7.1 NNW 20 22 11 12 1013.9 1013.8 0.0
31/11:00pm 14.6 10.0 -3.7 28 7.2 NNW 11 13 6 7 1013.7 1013.6 0.0
31/10:30pm 14.2 10.0 -4.0 28 7.1 N 9 11 5 6 1014.0 1013.9 0.0
31/10:00pm 14.3 8.9 -4.4 27 7.2 N 15 17 8 9 1014.3 1014.3 0.0
31/09:30pm 16.3 11.4 -3.7 25 8.0 NNW 13 17 7 9 1014.6 1014.6 0.0
31/09:00pm 16.0 10.7 -4.0 25 7.9 N 15 17 8 9 1014.4 1014.4 0.0
31/08:30pm 16.6 11.3 -4.0 24 8.2 NNW 15 19 8 10 1014.7 1014.7 0.0
31/08:00pm 16.8 11.8 -4.4 23 8.4 N 13 15 7 8 1014.7 1014.7 0.0
31/07:30pm 17.4 12.4 -3.9 23 8.6 NNW 13 20 7 11 1014.8 1014.8 0.0
31/07:00pm 18.0 13.0 -4.0 22 8.9 NNW 13 13 7 7 1014.5 1014.5 0.0
31/06:30pm 19.1 13.8 -3.7 21 9.4 N 15 17 8 9 1014.6 1014.6 0.0
31/06:00pm 21.3 15.0 -4.0 18 10.6 NNW 20 24 11 13 1014.5 1014.5 0.0
31/05:30pm 23.0 15.5 -4.1 16 11.5 NNW 26 35 14 19 1014.2 1014.2 0.0
31/05:00pm 24.2 17.1 -4.0 15 12.1 NNW 24 30 13 16 1014.3 1014.3 0.0
31/04:30pm 24.7 17.4 -2.8 16 12.1 NNW 26 35 14 19 1014.3 1014.3 0.0
31/04:00pm 25.0 17.2 -3.4 15 12.4 NNW 28 43 15 23 1014.3 1014.3 0.0
31/03:30pm 25.1 17.5 -2.5 16 12.3 N 28 41 15 22 1014.5 1014.5 0.0
31/03:00pm 25.2 17.0 -4.2 14 12.7 NW 30 39 16 21 1014.8 1014.8 0.0
31/02:30pm 25.4 17.6 -4.0 14 12.8 NNW 28 43 15 23 1015.4 1015.4 0.0
31/02:00pm 25.5 17.8 -3.0 15 12.6 N 28 35 15 19 1015.6 1015.6 0.0
31/01:30pm 25.1 17.2 -1.6 17 12.1 N 30 39 16 21 1016.1 1016.1 0.0
31/01:00pm 23.9 15.3 -2.6 17 11.7 NNW 33 54 18 29 1016.6 1016.5 0.0
31/12:52pm 24.6 16.6 -2.0 17 11.9 N 30 52 16 28 1016.8 1016.7 0.0
31/12:30pm 24.1 16.5 -2.4 17 11.7 NNW 28 43 15 23 1017.4 1017.4 0.0

Other Formats:

Comma delimited format used in spreadsheet applications
http://www.bom.gov.au/fwo/IDS60801/IDS60801.94674.axf

JavaScript Object Notation format (JSON) in row-major order
http://www.bom.gov.au/fwo/IDS60801/IDS60801.94674.json